Time;durP1;ratioP1;P1;durP2;ratioP2;P2;SDS_P1;SDS_P2;PMS_P1;PMS_P2;Temp;Humidity;BMP_temperature;BMP_pressure;BME280_temperature;BME280_humidity;BME280_pressure;Samples;Min_cycle;Max_cycle;Signal;HPM_P1;HPM_P2
2021/07/09 00:00:34;;;;;;;5.13;4.35;;;;;;;25.56;52.10;95213.94;2967239;40;20067;-85
2021/07/09 00:02:36;;;;;;;4.20;3.70;;;;;;;25.59;52.22;95210.75;2968128;40;20063;-82
2021/07/09 00:04:38;;;;;;;5.65;4.18;;;;;;;25.63;51.96;95211.91;2968797;40;20354;-81
2021/07/09 00:06:41;;;;;;;5.20;3.75;;;;;;;25.64;51.70;95218.06;2961380;40;20060;-81
2021/07/09 00:08:42;;;;;;;5.95;3.97;;;;;;;25.63;51.64;95214.59;2966528;40;20088;-82
2021/07/09 00:10:44;;;;;;;4.88;3.92;;;;;;;25.18;52.63;95223.34;2966624;40;20101;-83
2021/07/09 00:12:46;;;;;;;8.15;4.18;;;;;;;24.86;53.68;95222.97;2968081;40;20063;-70
2021/07/09 00:14:47;;;;;;;4.20;3.80;;;;;;;24.75;53.89;95219.25;2967326;40;20060;-69
2021/07/09 00:16:49;;;;;;;6.43;3.97;;;;;;;24.71;53.74;95216.22;2967582;40;20133;-68
2021/07/09 00:18:51;;;;;;;8.50;4.40;;;;;;;24.59;54.31;95218.13;2966367;40;20070;-69
2021/07/09 00:20:53;;;;;;;5.00;4.05;;;;;;;24.56;54.06;95201.69;2966193;40;20305;-70
2021/07/09 00:22:55;;;;;;;6.07;4.50;;;;;;;24.48;54.92;95202.84;2967188;40;20063;-69
2021/07/09 00:24:57;;;;;;;4.43;3.70;;;;;;;24.48;54.65;95209.03;2967956;40;20444;-70
2021/07/09 00:27:00;;;;;;;5.00;3.90;;;;;;;24.33;54.93;95217.50;2963547;40;20399;-70
2021/07/09 00:29:03;;;;;;;6.30;3.80;;;;;;;24.39;54.48;95214.94;2967018;40;20116;-69
2021/07/09 00:31:05;;;;;;;8.07;4.30;;;;;;;24.48;54.52;95210.88;2963100;40;20048;-70
2021/07/09 00:33:07;;;;;;;6.43;4.38;;;;;;;24.60;54.60;95208.22;2962179;40;20189;-70
2021/07/09 00:35:09;;;;;;;5.68;4.00;;;;;;;24.63;54.19;95205.06;2963966;40;20137;-69
2021/07/09 00:37:11;;;;;;;8.30;4.50;;;;;;;24.69;54.06;95199.59;2962755;40;20048;-68
2021/07/09 00:39:14;;;;;;;7.45;3.97;;;;;;;24.71;54.06;95197.47;2967192;40;20131;-70
2021/07/09 00:41:16;;;;;;;8.05;4.47;;;;;;;24.74;53.89;95201.56;2964593;40;20057;-69
2021/07/09 00:43:17;;;;;;;5.97;4.90;;;;;;;24.73;54.08;95202.59;2965373;40;20083;-69
2021/07/09 00:45:20;;;;;;;5.38;4.60;;;;;;;24.72;54.03;95198.31;2962578;40;20069;-71
2021/07/09 00:47:22;;;;;;;6.50;4.03;;;;;;;24.76;53.38;95199.47;2966494;40;20100;-69
2021/07/09 00:49:24;;;;;;;5.30;3.97;;;;;;;24.78;53.95;95194.69;2965325;40;20517;-70
2021/07/09 00:51:26;;;;;;;6.10;4.40;;;;;;;24.74;54.00;95198.88;2954166;40;20354;-69
2021/07/09 00:53:28;;;;;;;4.68;3.60;;;;;;;24.73;53.76;95194.56;2967742;40;20081;-70
2021/07/09 00:55:29;;;;;;;5.43;4.30;;;;;;;24.67;53.52;95195.50;2960002;40;20110;-70
2021/07/09 00:57:31;;;;;;;5.68;4.00;;;;;;;24.60;53.69;95194.81;2966625;40;20064;-70
2021/07/09 00:59:34;;;;;;;5.68;3.90;;;;;;;24.60;53.77;95189.47;2963851;40;20100;-69
2021/07/09 01:01:35;;;;;;;4.55;4.10;;;;;;;24.20;54.72;95185.63;2967031;40;20143;-81
2021/07/09 01:03:37;;;;;;;7.72;4.65;;;;;;;23.88;55.52;95182.44;2961558;40;20425;-70
2021/07/09 01:05:39;;;;;;;6.05;4.35;;;;;;;23.82;55.90;95188.69;2968778;40;20049;-68
2021/07/09 01:07:42;;;;;;;5.07;4.45;;;;;;;23.73;56.24;95182.03;2966856;40;20064;-70
2021/07/09 01:09:43;;;;;;;4.95;4.30;;;;;;;23.54;56.91;95190.13;2957431;40;20154;-69
2021/07/09 01:11:48;;;;;;;6.45;4.60;;;;;;;23.31;57.44;95183.63;2966584;40;20148;-70
2021/07/09 01:13:51;;;;;;;6.22;4.70;;;;;;;23.16;58.06;95183.22;2966552;40;20056;-69
2021/07/09 01:15:53;;;;;;;7.32;5.10;;;;;;;22.90;58.67;95189.69;2959579;40;20402;-69
2021/07/09 01:17:55;;;;;;;5.75;5.15;;;;;;;22.76;59.50;95183.69;2967925;40;20421;-69
2021/07/09 01:19:57;;;;;;;6.13;5.38;;;;;;;22.58;59.89;95187.16;2961952;40;20369;-70
2021/07/09 01:21:58;;;;;;;7.38;5.47;;;;;;;22.52;60.42;95187.25;2967988;40;20128;-69
2021/07/09 01:24:03;;;;;;;9.45;6.57;;;;;;;22.55;60.34;95194.81;2959344;40;20137;-68
2021/07/09 01:26:05;;;;;;;9.73;5.28;;;;;;;22.50;60.64;95190.16;2967598;40;20116;-69
2021/07/09 01:28:08;;;;;;;8.25;5.80;;;;;;;22.41;60.82;95194.97;2964565;40;20051;-69
2021/07/09 01:30:14;;;;;;;5.38;4.55;;;;;;;22.49;60.49;95197.31;2959505;40;20049;-69
2021/07/09 01:32:15;;;;;;;7.13;5.05;;;;;;;22.66;59.88;95199.41;2955589;40;20079;-69
2021/07/09 01:34:17;;;;;;;6.32;5.68;;;;;;;22.77;59.74;95200.53;2955746;40;20061;-69
2021/07/09 01:36:19;;;;;;;6.82;5.10;;;;;;;22.89;59.37;95194.22;2966765;40;21088;-69
2021/07/09 01:38:20;;;;;;;7.40;5.50;;;;;;;23.00;58.92;95200.69;2957833;40;20070;-68
2021/07/09 01:40:23;;;;;;;5.07;4.57;;;;;;;23.04;59.13;95204.56;2965716;40;20465;-70
2021/07/09 01:42:25;;;;;;;6.27;5.10;;;;;;;23.09;58.75;95207.34;2956507;40;20408;-68
2021/07/09 01:44:26;;;;;;;6.47;5.28;;;;;;;23.18;58.75;95204.38;2966180;40;20274;-69
2021/07/09 01:46:29;;;;;;;6.88;5.07;;;;;;;23.26;58.27;95202.22;2970097;40;20056;-69
2021/07/09 01:48:30;;;;;;;17.00;6.30;;;;;;;23.39;58.10;95201.22;2964641;40;20121;-69
2021/07/09 01:50:33;;;;;;;5.90;5.30;;;;;;;23.48;57.70;95207.88;2966039;40;20305;-70
2021/07/09 01:52:34;;;;;;;8.80;5.43;;;;;;;23.39;57.38;95206.56;2966252;40;20064;-69
2021/07/09 01:54:36;;;;;;;6.88;5.05;;;;;;;23.29;57.79;95203.63;2967763;40;20427;-69
2021/07/09 01:56:38;;;;;;;7.13;4.97;;;;;;;23.24;57.78;95209.63;2971653;40;20078;-70
2021/07/09 01:58:40;;;;;;;5.55;4.28;;;;;;;23.22;58.22;95205.56;2966071;40;20056;-70
2021/07/09 02:00:42;;;;;;;5.50;4.40;;;;;;;23.09;57.90;95209.22;2967714;40;20136;-69
2021/07/09 02:02:44;;;;;;;6.72;4.55;;;;;;;23.05;58.05;95210.72;2966922;40;20059;-70
2021/07/09 02:04:51;;;;;;;9.80;4.38;;;;;;;22.99;58.18;95209.72;2971561;40;20070;-69
2021/07/09 02:06:52;;;;;;;6.30;4.38;;;;;;;23.01;58.18;95209.53;2970799;40;20056;-69
2021/07/09 02:08:54;;;;;;;6.13;4.22;;;;;;;23.07;58.40;95214.78;2967759;40;20129;-70
2021/07/09 02:10:56;;;;;;;6.75;4.13;;;;;;;23.15;58.05;95204.84;2951325;40;20142;-69
2021/07/09 02:12:59;;;;;;;6.93;4.57;;;;;;;23.26;57.59;95206.75;2956478;40;20302;-69
2021/07/09 02:15:09;;;;;;;4.75;4.07;;;;;;;23.38;57.04;95196.94;2960289;40;20362;-69
2021/07/09 02:17:16;;;;;;;7.78;4.30;;;;;;;23.49;57.00;95208.72;2963933;40;20045;-69
2021/07/09 02:19:17;;;;;;;5.38;3.80;;;;;;;23.56;56.36;95212.09;2967450;40;20079;-69
2021/07/09 02:21:20;;;;;;;4.90;3.97;;;;;;;23.62;56.42;95211.19;2972356;40;20258;-70
2021/07/09 02:23:22;;;;;;;6.28;4.25;;;;;;;23.63;56.43;95215.47;2972549;40;20132;-70
2021/07/09 02:25:25;;;;;;;5.72;3.97;;;;;;;23.68;56.41;95212.13;2965128;40;20818;-70
2021/07/09 02:27:27;;;;;;;4.97;3.88;;;;;;;23.73;56.02;95216.81;2968697;40;20377;-69
2021/07/09 02:29:29;;;;;;;5.03;4.03;;;;;;;23.75;56.42;95215.53;2969067;40;20064;-69
2021/07/09 02:31:31;;;;;;;5.90;3.92;;;;;;;23.75;56.10;95215.53;2961353;40;20522;-69
2021/07/09 02:33:33;;;;;;;6.70;4.38;;;;;;;23.79;55.95;95210.53;2967018;40;20129;-69
2021/07/09 02:35:38;;;;;;;6.28;4.57;;;;;;;23.74;56.54;95210.41;2967095;40;20077;-68
2021/07/09 02:37:42;;;;;;;5.55;4.40;;;;;;;23.70;56.22;95216.22;2970251;40;20056;-68
2021/07/09 02:39:44;;;;;;;6.07;4.07;;;;;;;23.72;56.66;95215.97;2957908;40;20431;-70
2021/07/09 02:41:45;;;;;;;5.65;3.90;;;;;;;23.69;56.91;95219.13;2966705;40;20064;-69
2021/07/09 02:43:47;;;;;;;4.53;4.05;;;;;;;23.75;56.51;95214.69;2967094;40;20435;-70
2021/07/09 02:45:49;;;;;;;5.15;4.25;;;;;;;23.76;56.75;95209.16;2964953;40;20145;-69
2021/07/09 02:47:51;;;;;;;4.97;4.18;;;;;;;23.80;56.51;95209.53;2969474;40;20202;-70
2021/07/09 02:49:53;;;;;;;9.10;4.40;;;;;;;23.81;56.35;95209.28;2970067;39;20419;-68
2021/07/09 02:51:55;;;;;;;4.68;4.05;;;;;;;23.83;56.73;95211.72;2971138;40;20315;-69
2021/07/09 02:53:57;;;;;;;6.22;4.30;;;;;;;23.84;56.38;95205.34;2967657;40;20051;-69
2021/07/09 02:55:58;;;;;;;4.88;4.32;;;;;;;23.83;56.42;95212.56;2964850;40;20157;-70
2021/07/09 02:58:00;;;;;;;5.32;4.07;;;;;;;23.82;56.88;95213.59;2970385;40;20064;-69
2021/07/09 03:00:07;;;;;;;6.57;4.07;;;;;;;23.80;56.77;95218.34;2966895;40;20056;-70
2021/07/09 03:02:09;;;;;;;7.00;4.32;;;;;;;23.83;56.66;95212.56;2962811;40;20157;-69
2021/07/09 03:04:12;;;;;;;5.05;4.55;;;;;;;23.81;56.79;95216.50;2963208;40;20106;-70
2021/07/09 03:06:13;;;;;;;7.60;4.82;;;;;;;23.73;56.74;95219.47;2967925;39;20060;-70
2021/07/09 03:08:15;;;;;;;4.25;3.85;;;;;;;23.68;56.32;95220.13;2967318;40;20125;-68
2021/07/09 03:10:17;;;;;;;7.22;4.95;;;;;;;23.71;56.43;95214.34;2970971;40;20144;-68
2021/07/09 03:12:18;;;;;;;5.28;4.45;;;;;;;23.69;56.48;95214.56;2964474;40;20098;-68
2021/07/09 03:14:20;;;;;;;5.43;4.32;;;;;;;23.63;56.52;95220.81;2964445;40;20067;-68
2021/07/09 03:16:22;;;;;;;5.57;4.45;;;;;;;23.57;56.56;95223.59;2967089;40;20055;-69
2021/07/09 03:18:24;;;;;;;5.63;4.28;;;;;;;23.57;56.78;95220.94;2959568;40;20051;-69
2021/07/09 03:20:25;;;;;;;5.05;4.22;;;;;;;23.61;56.61;95219.44;2967929;40;20137;-69
2021/07/09 03:22:27;;;;;;;4.75;4.30;;;;;;;23.68;56.32;95220.97;2966804;40;20117;-68
2021/07/09 03:24:29;;;;;;;6.00;4.57;;;;;;;23.77;56.36;95218.00;2954434;40;20136;-70
2021/07/09 03:26:31;;;;;;;6.38;4.55;;;;;;;23.79;56.32;95226.59;2967053;40;20048;-69
2021/07/09 03:28:33;;;;;;;6.22;5.20;;;;;;;23.77;56.35;95221.50;2963766;40;20389;-69
2021/07/09 03:30:35;;;;;;;9.25;4.32;;;;;;;23.78;56.39;95227.66;2964766;40;20060;-73
2021/07/09 03:32:37;;;;;;;4.88;4.00;;;;;;;23.75;56.35;95230.75;2966669;40;20095;-69
2021/07/09 03:34:38;;;;;;;4.65;3.92;;;;;;;23.79;56.52;95216.75;2969298;40;20088;-80
2021/07/09 03:36:43;;;;;;;5.40;4.40;;;;;;;23.86;56.27;95220.13;2965558;40;20138;-69
2021/07/09 03:38:49;;;;;;;7.38;4.55;;;;;;;23.91;56.25;95222.91;2963914;40;20445;-70
2021/07/09 03:40:51;;;;;;;7.53;4.82;;;;;;;23.92;56.09;95218.41;2966549;40;20092;-69
2021/07/09 03:42:53;;;;;;;8.63;4.85;;;;;;;23.99;56.16;95216.41;2966825;40;20089;-69
2021/07/09 03:44:54;;;;;;;9.93;4.75;;;;;;;24.05;56.30;95220.84;2964463;40;20213;-69
2021/07/09 03:46:56;;;;;;;6.75;4.47;;;;;;;24.06;56.15;95219.78;2963610;40;20052;-69
2021/07/09 03:48:58;;;;;;;6.80;4.43;;;;;;;23.96;56.28;95213.38;2965590;40;20071;-70
2021/07/09 03:51:00;;;;;;;6.20;4.85;;;;;;;23.94;56.52;95212.78;2955945;40;20521;-69
2021/07/09 03:53:02;;;;;;;8.00;4.55;;;;;;;23.96;56.55;95208.84;2967248;40;20069;-69
2021/07/09 03:55:05;;;;;;;5.22;4.20;;;;;;;23.98;56.52;95208.63;2967171;40;20052;-69
2021/07/09 03:57:07;;;;;;;6.53;4.55;;;;;;;24.08;56.22;95209.69;2963943;40;20405;-72
2021/07/09 03:59:09;;;;;;;5.88;4.53;;;;;;;24.06;56.39;95210.97;2964219;40;20106;-70
2021/07/09 04:01:11;;;;;;;7.93;4.22;;;;;;;24.11;56.32;95213.75;2960027;40;20049;-71
2021/07/09 04:03:12;;;;;;;4.97;4.38;;;;;;;23.82;57.54;95218.13;2963832;40;20162;-69
2021/07/09 04:05:14;;;;;;;6.22;4.97;;;;;;;23.78;57.50;95214.28;2967379;40;20054;-71
2021/07/09 04:07:16;;;;;;;8.77;5.00;;;;;;;23.82;57.59;95218.13;2955327;40;20065;-70
2021/07/09 04:09:18;;;;;;;6.20;4.55;;;;;;;23.81;57.51;95220.00;2965761;40;20092;-71
2021/07/09 04:11:20;;;;;;;6.15;4.78;;;;;;;23.80;57.51;95215.69;2967756;40;20040;-69
2021/07/09 04:13:22;;;;;;;5.43;4.43;;;;;;;23.85;57.53;95215.00;2958802;40;20124;-69
2021/07/09 04:15:24;;;;;;;7.13;4.32;;;;;;;23.89;57.50;95206.25;2967170;40;20060;-69
2021/07/09 04:17:25;;;;;;;7.63;4.13;;;;;;;23.96;57.10;95213.38;2966520;40;20411;-69
2021/07/09 04:19:27;;;;;;;8.50;4.43;;;;;;;24.00;57.37;95206.53;2966262;40;20040;-69
2021/07/09 04:21:29;;;;;;;5.50;4.10;;;;;;;24.07;57.25;95212.56;2964610;40;20177;-70
2021/07/09 04:23:30;;;;;;;8.02;4.82;;;;;;;23.97;57.35;95223.88;2968028;40;20432;-68
2021/07/09 04:25:32;;;;;;;5.43;4.15;;;;;;;23.95;57.65;95209.09;2962310;40;20137;-80
2021/07/09 04:27:35;;;;;;;8.85;4.72;;;;;;;24.03;57.19;95211.44;2960470;40;20212;-80
2021/07/09 04:29:37;;;;;;;6.43;5.32;;;;;;;24.09;57.19;95216.69;2970367;40;20145;-81
2021/07/09 04:31:38;;;;;;;5.88;4.70;;;;;;;24.15;57.17;95214.09;2968232;40;20069;-83
2021/07/09 04:33:43;;;;;;;6.20;4.28;;;;;;;24.24;57.06;95210.88;2972611;40;20044;-83
2021/07/09 04:35:45;;;;;;;5.55;4.63;;;;;;;24.39;56.44;95206.91;2971568;40;20444;-84
2021/07/09 04:37:46;;;;;;;8.55;4.90;;;;;;;24.46;56.08;95205.75;2971948;40;20087;-83
2021/07/09 04:39:48;;;;;;;6.90;4.60;;;;;;;24.52;56.01;95209.38;2965045;40;20065;-82
2021/07/09 04:41:50;;;;;;;6.43;4.50;;;;;;;24.62;55.75;95206.13;2966821;40;20182;-81
2021/07/09 04:43:52;;;;;;;8.50;5.32;;;;;;;24.66;56.04;95209.97;2967422;40;20152;-83
2021/07/09 04:45:53;;;;;;;5.85;5.15;;;;;;;24.67;56.04;95208.88;2958393;40;20048;-83
2021/07/09 04:47:55;;;;;;;6.95;4.55;;;;;;;24.69;55.74;95206.78;2967397;40;20437;-81
2021/07/09 04:49:57;;;;;;;13.93;5.10;;;;;;;24.78;55.67;95205.41;2967355;40;20052;-82
2021/07/09 04:51:59;;;;;;;6.70;5.10;;;;;;;24.85;55.60;95200.72;2967461;40;20158;-82
2021/07/09 04:54:00;;;;;;;6.47;4.75;;;;;;;24.91;55.46;95207.81;2967931;40;20136;-82
2021/07/09 04:56:02;;;;;;;6.88;4.55;;;;;;;24.98;55.47;95209.56;2972153;40;20052;-83
2021/07/09 04:58:04;;;;;;;7.05;4.90;;;;;;;25.04;55.04;95212.09;2966779;40;20051;-82
2021/07/09 05:00:07;;;;;;;6.85;4.63;;;;;;;25.03;55.27;95205.09;2960141;40;20079;-82
2021/07/09 05:02:09;;;;;;;9.43;5.40;;;;;;;24.99;55.47;95203.94;2958470;40;20104;-83
2021/07/09 05:04:10;;;;;;;9.02;5.13;;;;;;;24.98;55.38;95212.25;2967321;40;20083;-83
2021/07/09 05:06:12;;;;;;;9.30;5.57;;;;;;;24.71;56.13;95196.66;2965024;40;20058;-80
2021/07/09 05:08:14;;;;;;;6.53;4.90;;;;;;;24.65;56.39;95197.59;2964492;40;20054;-82
2021/07/09 05:10:16;;;;;;;5.45;4.63;;;;;;;24.66;56.51;95189.31;2959116;40;20072;-81
2021/07/09 05:12:17;;;;;;;6.30;4.75;;;;;;;24.67;56.51;95195.50;2967271;40;20068;-83
2021/07/09 05:14:19;;;;;;;8.75;5.05;;;;;;;24.73;56.44;95199.91;2966598;40;20049;-82
2021/07/09 05:16:21;;;;;;;5.68;4.57;;;;;;;24.85;56.11;95191.88;2967136;40;20060;-82
2021/07/09 05:18:23;;;;;;;7.45;5.25;;;;;;;24.87;55.84;95189.78;2966913;40;20128;-83
2021/07/09 05:20:24;;;;;;;6.32;4.90;;;;;;;24.96;55.94;95191.03;2968160;40;20052;-84
2021/07/09 05:22:26;;;;;;;7.65;4.80;;;;;;;25.03;55.46;95182.84;2967561;40;20261;-82
2021/07/09 05:24:28;;;;;;;10.43;5.60;;;;;;;25.03;55.65;95183.66;2967107;40;20096;-82
2021/07/09 05:26:30;;;;;;;7.47;4.95;;;;;;;25.01;56.00;95182.28;2971399;40;20060;-82
2021/07/09 05:28:31;;;;;;;8.05;5.35;;;;;;;25.04;55.65;95179.13;2969769;40;20048;-83
2021/07/09 05:30:33;;;;;;;10.93;8.73;;;;;;;25.11;55.35;95174.44;2968759;40;20096;-83
2021/07/09 05:32:35;;;;;;;7.50;5.38;;;;;;;25.12;55.27;95173.38;2967784;40;20061;-83
2021/07/09 05:34:37;;;;;;;8.75;6.03;;;;;;;25.09;55.43;95165.81;2965562;40;20052;-81
2021/07/09 05:36:40;;;;;;;8.38;5.53;;;;;;;24.90;55.89;95174.00;2968352;40;20056;-80
2021/07/09 05:38:42;;;;;;;7.33;5.10;;;;;;;24.87;55.74;95176.38;2961882;40;20095;-84
2021/07/09 05:40:43;;;;;;;7.63;5.25;;;;;;;24.91;55.63;95175.66;2967712;40;20372;-81
2021/07/09 05:42:45;;;;;;;8.40;4.97;;;;;;;25.03;55.53;95177.50;2968435;40;20060;-81
2021/07/09 05:44:47;;;;;;;9.90;5.38;;;;;;;25.10;55.53;95168.28;2969497;40;20055;-83
2021/07/09 05:46:48;;;;;;;8.07;5.20;;;;;;;25.16;55.37;95171.84;2969067;40;20060;-82
2021/07/09 05:48:50;;;;;;;8.57;5.47;;;;;;;25.19;55.11;95167.88;2958819;40;20134;-83
2021/07/09 05:50:52;;;;;;;6.20;5.28;;;;;;;25.23;55.00;95171.72;2967603;40;20056;-83
2021/07/09 05:52:57;;;;;;;7.30;5.50;;;;;;;25.22;54.88;95178.16;2966270;40;20401;-82
2021/07/09 05:54:58;;;;;;;6.50;5.07;;;;;;;25.26;54.57;95171.28;2968725;40;20067;-81
2021/07/09 05:57:01;;;;;;;6.63;5.00;;;;;;;25.32;54.78;95176.47;2968168;40;20067;-81
2021/07/09 05:59:03;;;;;;;9.30;6.40;;;;;;;25.26;54.85;95180.13;2966804;40;20086;-83
2021/07/09 06:01:05;;;;;;;8.50;5.97;;;;;;;25.19;55.27;95170.53;2970423;40;20461;-82
2021/07/09 06:03:07;;;;;;;11.50;5.60;;;;;;;25.17;55.24;95178.84;2969142;40;20499;-83
2021/07/09 06:05:09;;;;;;;7.53;6.05;;;;;;;25.30;55.03;95177.78;2968425;40;20048;-82
2021/07/09 06:07:11;;;;;;;9.38;5.88;;;;;;;25.42;54.66;95175.03;2966253;40;20040;-82
2021/07/09 06:09:13;;;;;;;7.03;5.25;;;;;;;25.31;55.10;95172.16;2963842;40;20760;-83
2021/07/09 06:11:15;;;;;;;6.68;5.22;;;;;;;25.33;55.45;95175.41;2967140;40;20136;-82
2021/07/09 06:13:16;;;;;;;8.65;4.95;;;;;;;25.44;55.14;95172.94;2959673;40;20059;-83
2021/07/09 06:15:18;;;;;;;6.53;5.57;;;;;;;25.36;55.44;95176.81;2971739;40;20067;-85
2021/07/09 06:17:20;;;;;;;6.70;5.95;;;;;;;24.94;56.54;95175.19;2970331;40;20124;-82
2021/07/09 06:19:22;;;;;;;11.00;5.60;;;;;;;24.67;57.42;95166.88;2969939;40;20052;-86
2021/07/09 06:21:25;;;;;;;7.95;5.95;;;;;;;24.65;57.14;95170.81;2974676;40;20060;-84
2021/07/09 06:23:28;;;;;;;8.63;5.55;;;;;;;24.87;56.90;95168.34;2970034;40;20421;-83
2021/07/09 06:25:29;;;;;;;5.72;5.00;;;;;;;25.16;56.13;95171.03;2966712;40;20060;-83
2021/07/09 06:27:31;;;;;;;9.02;5.22;;;;;;;25.04;56.25;95163.06;2963404;40;20133;-87
2021/07/09 06:29:34;;;;;;;14.50;6.80;;;;;;;24.45;58.02;95160.44;2968781;40;20052;-83
2021/07/09 06:31:35;;;;;;;22.33;6.93;;;;;;;24.25;58.86;95166.16;2969174;40;20076;-84
2021/07/09 06:33:37;;;;;;;62.45;10.95;;;;;;;24.39;58.86;95167.53;2970662;40;20052;-82
2021/07/09 06:35:39;;;;;;;86.60;16.67;;;;;;;24.70;58.07;95169.06;2968918;40;20052;-84
2021/07/09 06:37:41;;;;;;;13.60;6.60;;;;;;;24.92;57.70;95174.59;2956943;40;20418;-82
2021/07/09 06:39:43;;;;;;;17.73;7.25;;;;;;;25.15;56.73;95167.53;2973048;39;20051;-82
2021/07/09 06:41:44;;;;;;;74.65;11.73;;;;;;;25.36;56.26;95167.94;2968375;40;20068;-83
2021/07/09 06:43:47;;;;;;;19.60;7.78;;;;;;;25.56;55.64;95162.97;2968802;40;20060;-81
2021/07/09 06:45:49;;;;;;;77.07;11.70;;;;;;;25.68;55.60;95163.72;2968732;40;20061;-84
2021/07/09 06:47:51;;;;;;;52.33;9.38;;;;;;;25.57;55.48;95166.44;2969466;40;20068;-82
2021/07/09 06:49:53;;;;;;;27.73;9.07;;;;;;;25.46;55.65;95157.41;2965473;40;20060;-85
2021/07/09 06:51:54;;;;;;;16.63;8.40;;;;;;;24.86;57.22;95161.34;2959767;40;20484;-82
2021/07/09 06:53:56;;;;;;;24.73;10.80;;;;;;;25.00;57.29;95161.91;2970519;40;20053;-84
2021/07/09 06:55:58;;;;;;;24.95;8.85;;;;;;;25.26;56.76;95156.00;2966939;40;20442;-82
2021/07/09 06:58:00;;;;;;;17.65;7.88;;;;;;;25.10;56.05;95156.72;2956909;40;20060;-82
2021/07/09 07:00:03;;;;;;;21.35;6.80;;;;;;;25.40;55.77;95164.53;2969354;40;20096;-83
2021/07/09 07:02:05;;;;;;;14.70;6.53;;;;;;;25.59;54.51;95154.41;2973207;40;20060;-82
2021/07/09 07:04:09;;;;;;;16.05;7.90;;;;;;;25.46;54.70;95162.78;2966424;40;20060;-84
2021/07/09 07:06:12;;;;;;;;;;;;;;;25.15;55.87;95154.16;2968364;40;20049;-82
2021/07/09 07:08:16;;;;;;;14.52;5.72;;;;;;;25.00;55.38;95151.97;2969697;40;19980;-83
2021/07/09 07:10:17;;;;;;;;;;;;;;;25.14;55.80;95157.88;2958140;40;20061;-83
2021/07/09 07:12:19;;;;;;;15.00;6.50;;;;;;;25.28;55.66;95153.88;2967813;40;19936;-82
2021/07/09 07:14:21;;;;;;;16.60;7.68;;;;;;;25.43;55.20;95149.84;2963045;40;20130;-82
2021/07/09 07:16:22;;;;;;;18.10;7.57;;;;;;;25.31;55.17;95141.84;2962528;40;20115;-83
2021/07/09 07:18:25;;;;;;;19.88;7.13;;;;;;;25.55;54.58;95139.84;2968359;40;20088;-83
2021/07/09 07:20:26;;;;;;;11.40;6.68;;;;;;;25.73;53.18;95136.97;2968924;40;20062;-83
2021/07/09 07:22:46;;;;;;;31.15;6.82;;;;;;;25.92;52.69;95150.16;2971634;40;20176;-84
2021/07/09 07:24:49;;;;;;;39.85;10.13;;;;;;;25.94;52.67;95142.66;2968270;40;20070;-84
2021/07/09 07:26:51;;;;;;;26.83;6.55;;;;;;;26.10;51.61;95149.91;2969954;40;20316;-82
2021/07/09 07:28:52;;;;;;;9.93;5.50;;;;;;;26.29;50.95;95153.16;2969937;40;20052;-82
2021/07/09 07:30:54;;;;;;;35.22;10.23;;;;;;;26.50;49.68;95140.81;2972533;40;20149;-81
2021/07/09 07:32:56;;;;;;;45.40;12.75;;;;;;;26.59;49.25;95141.25;2968936;40;20351;-82
2021/07/09 07:34:57;;;;;;;21.02;8.48;;;;;;;26.72;49.26;95140.06;2968348;40;20044;-84
2021/07/09 07:36:59;;;;;;;8.65;5.70;;;;;;;26.81;48.91;95137.75;2968544;40;20133;-84
2021/07/09 07:39:01;;;;;;;15.85;6.90;;;;;;;26.89;49.48;95143.50;2968243;40;20064;-84
2021/07/09 07:41:03;;;;;;;12.25;6.20;;;;;;;26.99;48.47;95136.59;2959324;40;20056;-83
2021/07/09 07:43:06;;;;;;;109.38;21.00;;;;;;;26.98;48.86;95143.88;2966152;40;20064;-83
2021/07/09 07:45:08;;;;;;;;;;;;;;;27.05;48.80;95136.41;2968654;40;20044;-84
2021/07/09 07:47:10;;;;;;;15.10;6.63;;;;;;;26.58;50.27;95134.22;2959756;40;20027;-83
2021/07/09 07:49:12;;;;;;;16.23;7.57;;;;;;;26.46;50.66;95142.38;2966357;40;20136;-82
2021/07/09 07:51:14;;;;;;;9.38;6.00;;;;;;;26.42;50.66;95140.44;2966455;40;20069;-82
2021/07/09 07:53:15;;;;;;;22.25;6.85;;;;;;;26.32;50.79;95136.53;2964946;40;20060;-83
2021/07/09 07:55:17;;;;;;;11.27;5.50;;;;;;;26.34;50.59;95139.78;2969982;40;20141;-83
2021/07/09 07:57:20;;;;;;;11.50;5.53;;;;;;;26.54;50.50;95128.53;2974390;40;20389;-81
2021/07/09 07:59:22;;;;;;;10.40;6.60;;;;;;;26.90;49.43;95118.22;2975086;40;20371;-83
2021/07/09 08:01:25;;;;;;;12.57;8.48;;;;;;;27.12;48.72;95133.53;2974229;40;20393;-84
2021/07/09 08:03:27;;;;;;;8.98;5.88;;;;;;;27.31;46.75;95125.97;2959442;40;20305;-82
2021/07/09 08:05:29;;;;;;;13.80;7.28;;;;;;;27.32;46.33;95124.91;2967455;40;20281;-70
2021/07/09 08:07:31;;;;;;;81.47;12.38;;;;;;;27.41;45.68;95127.94;2972182;39;20064;-71
2021/07/09 08:09:32;;;;;;;22.77;6.78;;;;;;;27.52;45.23;95118.91;2966184;40;20064;-71
2021/07/09 08:11:34;;;;;;;15.05;5.93;;;;;;;27.65;44.85;95120.38;2963386;40;20067;-70
2021/07/09 08:13:36;;;;;;;10.55;5.97;;;;;;;27.74;44.80;95119.63;2969565;40;20059;-70
2021/07/09 08:15:38;;;;;;;19.60;8.38;;;;;;;27.77;43.81;95113.75;2956756;40;20566;-69
2021/07/09 08:17:40;;;;;;;28.75;7.53;;;;;;;27.55;42.16;95111.16;2964855;40;20048;-70
2021/07/09 08:19:41;;;;;;;42.55;16.63;;;;;;;27.54;43.45;95109.50;2966441;40;20322;-69
2021/07/09 08:21:46;;;;;;;30.10;12.18;;;;;;;27.70;44.77;95112.31;2968032;40;20371;-70
2021/07/09 08:23:48;;;;;;;8.40;4.80;;;;;;;27.73;44.99;95117.22;2974090;40;20144;-70
2021/07/09 08:25:49;;;;;;;7.80;5.20;;;;;;;27.73;44.41;95119.91;2970352;40;20424;-69
2021/07/09 08:27:51;;;;;;;10.57;6.60;;;;;;;27.86;44.82;95107.91;2971607;40;20488;-69
2021/07/09 08:29:53;;;;;;;7.60;5.47;;;;;;;27.97;43.94;95113.09;2967097;40;20448;-69
2021/07/09 08:31:57;;;;;;;9.95;5.70;;;;;;;28.14;43.79;95112.16;2973177;40;20060;-70
2021/07/09 08:33:59;;;;;;;12.23;6.32;;;;;;;28.23;44.81;95107.09;2964359;40;20094;-70
2021/07/09 08:36:02;;;;;;;10.57;6.38;;;;;;;28.30;44.76;95104.97;2965687;40;20049;-69
2021/07/09 08:38:03;;;;;;;22.83;10.80;;;;;;;28.23;45.13;95101.69;2972527;40;20078;-70
2021/07/09 08:40:06;;;;;;;16.27;7.03;;;;;;;27.93;46.38;95092.34;2966956;40;20387;-70
2021/07/09 08:42:07;;;;;;;10.60;6.68;;;;;;;27.99;45.19;95099.41;2967246;40;20048;-70
2021/07/09 08:44:11;;;;;;;15.73;6.20;;;;;;;28.15;43.91;95098.41;2966038;40;20125;-70
2021/07/09 08:46:14;;;;;;;55.30;14.82;;;;;;;28.09;44.15;95095.94;2966131;40;20045;-69
2021/07/09 08:48:32;;;;;;;15.63;5.75;;;;;;;27.82;42.95;95098.69;2969955;40;20086;-71
2021/07/09 08:50:34;;;;;;;32.65;6.43;;;;;;;27.50;43.41;95088.75;2959503;40;20398;-73
2021/07/09 08:52:36;;;;;;;7.90;3.90;;;;;;;27.80;42.54;95092.75;2970881;40;20133;-70
2021/07/09 08:54:38;;;;;;;10.40;3.72;;;;;;;28.08;42.00;95097.03;2957979;40;20057;-71
2021/07/09 08:56:40;;;;;;;12.00;4.65;;;;;;;27.98;41.39;95089.69;2969558;40;20409;-69
2021/07/09 08:58:42;;;;;;;7.80;3.50;;;;;;;27.85;41.15;95090.09;2962847;40;20061;-71
2021/07/09 09:00:45;;;;;;;7.85;4.43;;;;;;;28.11;41.72;95100.00;2968725;40;20085;-70
2021/07/09 09:02:47;;;;;;;8.23;4.13;;;;;;;27.95;42.15;95085.63;2969114;39;20064;-70
2021/07/09 09:04:51;;;;;;;4.80;3.67;;;;;;;27.76;42.39;95092.47;2972084;40;20064;-69
2021/07/09 09:07:12;;;;;;;11.93;6.47;;;;;;;28.10;41.96;95092.19;2969167;40;20644;-68
2021/07/09 09:09:17;;;;;;;16.35;8.15;;;;;;;27.94;41.16;95089.41;2968156;40;20153;-70
2021/07/09 09:11:19;;;;;;;11.18;4.82;;;;;;;28.13;40.68;95080.88;2957694;40;20053;-69
2021/07/09 09:13:28;;;;;;;14.30;5.63;;;;;;;28.15;41.17;95082.25;2964404;40;20402;-70
2021/07/09 09:15:31;;;;;;;5.47;4.15;;;;;;;28.38;40.83;95080.22;2970276;40;20132;-69
2021/07/09 09:17:35;;;;;;;10.35;4.72;;;;;;;28.28;41.30;95082.88;2951231;40;20374;-71
2021/07/09 09:19:37;;;;;;;10.50;4.13;;;;;;;28.39;40.89;95084.53;2968767;40;20394;-72
2021/07/09 09:21:39;;;;;;;17.05;5.53;;;;;;;28.49;40.99;95081.13;2965747;40;20074;-70
2021/07/09 09:23:52;;;;;;;18.52;5.60;;;;;;;28.53;40.19;95085.72;2970085;40;20040;-69
2021/07/09 09:26:14;;;;;;;28.55;7.78;;;;;;;28.61;40.28;95080.91;2966302;40;20388;-69
2021/07/09 09:28:16;;;;;;;18.42;4.85;;;;;;;28.63;39.47;95076.88;2966511;40;20143;-70
2021/07/09 09:30:20;;;;;;;32.10;7.28;;;;;;;28.43;39.70;95080.25;2971721;40;21041;-69
2021/07/09 09:32:21;;;;;;;9.30;3.95;;;;;;;28.73;39.63;95073.41;2964155;40;20401;-69
2021/07/09 09:34:35;;;;;;;4.95;3.90;;;;;;;28.91;39.42;95064.00;2971121;40;20044;-69